Terminal Aerodrome Forecast
Issued by NWS Wichita, KS

Home | Current Version | Previous Version | Graphics & Text | Print | Product List | Glossary On
Versions: 1 2 3 4 5 6 7 8 9 10 11 12 13 14 15 16 17 18 19 20 21 22 23 24 25
000
FTUS43 KICT 231700
TAFICT
TAF
KICT 231720Z 2318/2418 19008KT P6SM SCT015 OVC035
      TEMPO 2318/2320 BKN015
     FM232000 21006KT P6SM SCT035
     FM240000 21005KT P6SM BKN250=

USA.gov is the U.S. government's official web portal to all federal, state and local government web resources and services.